sensor_id;sensor_type;location;lat;lon;timestamp;P1;durP1;ratioP1;P2;durP2;ratioP2
46675;SDS011;32412;51.478;5.694;2024-01-30T00:01:51;14.18;;;9.38;;
46675;SDS011;32412;51.478;5.694;2024-01-30T00:04:17;14.35;;;9.23;;
46675;SDS011;32412;51.478;5.694;2024-01-30T00:06:43;17.05;;;9.90;;
46675;SDS011;32412;51.478;5.694;2024-01-30T00:09:09;17.30;;;9.43;;
46675;SDS011;32412;51.478;5.694;2024-01-30T00:11:36;17.83;;;10.10;;
46675;SDS011;32412;51.478;5.694;2024-01-30T00:14:02;19.23;;;10.23;;
46675;SDS011;32412;51.478;5.694;2024-01-30T00:16:28;15.73;;;9.77;;
46675;SDS011;32412;51.478;5.694;2024-01-30T00:18:54;17.55;;;10.55;;
46675;SDS011;32412;51.478;5.694;2024-01-30T00:21:20;19.45;;;10.68;;
46675;SDS011;32412;51.478;5.694;2024-01-30T00:23:46;16.63;;;10.05;;
46675;SDS011;32412;51.478;5.694;2024-01-30T00:26:12;16.33;;;10.80;;
46675;SDS011;32412;51.478;5.694;2024-01-30T00:28:38;22.23;;;10.15;;
46675;SDS011;32412;51.478;5.694;2024-01-30T00:31:04;21.52;;;10.88;;
46675;SDS011;32412;51.478;5.694;2024-01-30T00:33:29;16.75;;;10.95;;
46675;SDS011;32412;51.478;5.694;2024-01-30T00:35:55;17.73;;;10.02;;
46675;SDS011;32412;51.478;5.694;2024-01-30T00:38:21;15.63;;;9.90;;
46675;SDS011;32412;51.478;5.694;2024-01-30T00:40:47;20.15;;;10.05;;
46675;SDS011;32412;51.478;5.694;2024-01-30T00:43:13;18.13;;;10.40;;
46675;SDS011;32412;51.478;5.694;2024-01-30T00:45:39;18.02;;;10.23;;
46675;SDS011;32412;51.478;5.694;2024-01-30T00:48:05;15.88;;;10.52;;
46675;SDS011;32412;51.478;5.694;2024-01-30T00:50:31;16.70;;;10.57;;
46675;SDS011;32412;51.478;5.694;2024-01-30T00:52:56;17.75;;;10.90;;
46675;SDS011;32412;51.478;5.694;2024-01-30T00:55:22;18.30;;;10.60;;
46675;SDS011;32412;51.478;5.694;2024-01-30T00:57:48;16.70;;;10.18;;
46675;SDS011;32412;51.478;5.694;2024-01-30T01:00:13;20.55;;;10.88;;
46675;SDS011;32412;51.478;5.694;2024-01-30T01:02:42;19.08;;;10.98;;
46675;SDS011;32412;51.478;5.694;2024-01-30T01:05:08;16.10;;;10.50;;
46675;SDS011;32412;51.478;5.694;2024-01-30T01:07:34;16.80;;;10.43;;
46675;SDS011;32412;51.478;5.694;2024-01-30T01:10:00;22.50;;;11.35;;
46675;SDS011;32412;51.478;5.694;2024-01-30T01:12:25;15.38;;;10.13;;
46675;SDS011;32412;51.478;5.694;2024-01-30T01:14:51;17.77;;;11.48;;
46675;SDS011;32412;51.478;5.694;2024-01-30T01:17:17;19.30;;;11.48;;
46675;SDS011;32412;51.478;5.694;2024-01-30T01:19:43;20.65;;;11.55;;
46675;SDS011;32412;51.478;5.694;2024-01-30T01:22:09;21.05;;;11.00;;
46675;SDS011;32412;51.478;5.694;2024-01-30T01:24:35;18.80;;;11.48;;
46675;SDS011;32412;51.478;5.694;2024-01-30T01:27:01;19.77;;;11.82;;
46675;SDS011;32412;51.478;5.694;2024-01-30T01:29:27;19.88;;;11.32;;
46675;SDS011;32412;51.478;5.694;2024-01-30T01:31:56;21.85;;;11.40;;
46675;SDS011;32412;51.478;5.694;2024-01-30T01:34:21;20.05;;;12.00;;
46675;SDS011;32412;51.478;5.694;2024-01-30T01:36:48;23.50;;;11.07;;
46675;SDS011;32412;51.478;5.694;2024-01-30T01:39:14;22.70;;;11.32;;
46675;SDS011;32412;51.478;5.694;2024-01-30T01:41:40;18.55;;;11.77;;
46675;SDS011;32412;51.478;5.694;2024-01-30T01:44:06;18.65;;;10.90;;
46675;SDS011;32412;51.478;5.694;2024-01-30T01:46:33;20.45;;;11.35;;
46675;SDS011;32412;51.478;5.694;2024-01-30T01:49:02;22.80;;;11.85;;
46675;SDS011;32412;51.478;5.694;2024-01-30T01:51:31;20.63;;;11.35;;
46675;SDS011;32412;51.478;5.694;2024-01-30T01:53:58;18.88;;;11.48;;
46675;SDS011;32412;51.478;5.694;2024-01-30T01:56:29;19.30;;;11.60;;
46675;SDS011;32412;51.478;5.694;2024-01-30T01:58:56;17.48;;;11.00;;
46675;SDS011;32412;51.478;5.694;2024-01-30T02:01:32;16.48;;;10.52;;
46675;SDS011;32412;51.478;5.694;2024-01-30T02:03:59;17.65;;;11.23;;
46675;SDS011;32412;51.478;5.694;2024-01-30T02:06:25;21.63;;;12.02;;
46675;SDS011;32412;51.478;5.694;2024-01-30T02:08:52;21.27;;;11.13;;
46675;SDS011;32412;51.478;5.694;2024-01-30T02:11:18;18.73;;;10.43;;
46675;SDS011;32412;51.478;5.694;2024-01-30T02:13:45;19.50;;;10.82;;
46675;SDS011;32412;51.478;5.694;2024-01-30T02:16:10;20.88;;;10.40;;
46675;SDS011;32412;51.478;5.694;2024-01-30T02:18:36;18.58;;;11.80;;
46675;SDS011;32412;51.478;5.694;2024-01-30T02:21:06;22.20;;;11.05;;
46675;SDS011;32412;51.478;5.694;2024-01-30T02:23:32;15.60;;;10.52;;
46675;SDS011;32412;51.478;5.694;2024-01-30T02:25:59;17.20;;;10.57;;
46675;SDS011;32412;51.478;5.694;2024-01-30T02:28:25;22.50;;;11.30;;
46675;SDS011;32412;51.478;5.694;2024-01-30T02:30:52;16.98;;;10.70;;
46675;SDS011;32412;51.478;5.694;2024-01-30T02:33:18;16.75;;;10.52;;
46675;SDS011;32412;51.478;5.694;2024-01-30T02:35:44;20.17;;;11.18;;
46675;SDS011;32412;51.478;5.694;2024-01-30T02:38:10;15.88;;;10.48;;
46675;SDS011;32412;51.478;5.694;2024-01-30T02:40:36;21.08;;;11.32;;
46675;SDS011;32412;51.478;5.694;2024-01-30T02:43:02;17.20;;;10.65;;
46675;SDS011;32412;51.478;5.694;2024-01-30T02:45:30;14.80;;;10.13;;
46675;SDS011;32412;51.478;5.694;2024-01-30T02:47:56;18.52;;;10.27;;
46675;SDS011;32412;51.478;5.694;2024-01-30T02:50:22;17.88;;;10.15;;
46675;SDS011;32412;51.478;5.694;2024-01-30T02:52:48;21.92;;;11.07;;
46675;SDS011;32412;51.478;5.694;2024-01-30T02:55:13;16.98;;;10.68;;
46675;SDS011;32412;51.478;5.694;2024-01-30T02:57:42;19.60;;;11.00;;
46675;SDS011;32412;51.478;5.694;2024-01-30T03:00:08;20.35;;;10.85;;
46675;SDS011;32412;51.478;5.694;2024-01-30T03:02:34;22.10;;;10.88;;
46675;SDS011;32412;51.478;5.694;2024-01-30T03:05:00;16.77;;;10.52;;
46675;SDS011;32412;51.478;5.694;2024-01-30T03:07:26;19.13;;;10.32;;
46675;SDS011;32412;51.478;5.694;2024-01-30T03:09:52;20.45;;;10.80;;
46675;SDS011;32412;51.478;5.694;2024-01-30T03:12:17;18.83;;;10.70;;
46675;SDS011;32412;51.478;5.694;2024-01-30T03:14:43;17.58;;;10.43;;
46675;SDS011;32412;51.478;5.694;2024-01-30T03:17:09;19.50;;;10.65;;
46675;SDS011;32412;51.478;5.694;2024-01-30T03:19:34;18.60;;;10.63;;
46675;SDS011;32412;51.478;5.694;2024-01-30T03:22:00;16.42;;;10.52;;
46675;SDS011;32412;51.478;5.694;2024-01-30T03:24:26;17.30;;;10.80;;
46675;SDS011;32412;51.478;5.694;2024-01-30T03:26:51;18.00;;;10.25;;
46675;SDS011;32412;51.478;5.694;2024-01-30T03:29:18;14.88;;;10.15;;
46675;SDS011;32412;51.478;5.694;2024-01-30T03:31:43;15.45;;;9.85;;
46675;SDS011;32412;51.478;5.694;2024-01-30T03:34:09;19.35;;;10.05;;
46675;SDS011;32412;51.478;5.694;2024-01-30T03:36:34;17.45;;;11.05;;
46675;SDS011;32412;51.478;5.694;2024-01-30T03:39:00;16.17;;;9.88;;
46675;SDS011;32412;51.478;5.694;2024-01-30T03:41:26;17.63;;;10.15;;
46675;SDS011;32412;51.478;5.694;2024-01-30T03:43:52;19.13;;;10.73;;
46675;SDS011;32412;51.478;5.694;2024-01-30T03:46:18;17.25;;;9.48;;
46675;SDS011;32412;51.478;5.694;2024-01-30T03:48:44;15.10;;;10.07;;
46675;SDS011;32412;51.478;5.694;2024-01-30T03:51:10;17.95;;;9.95;;
46675;SDS011;32412;51.478;5.694;2024-01-30T03:53:41;16.88;;;10.13;;
46675;SDS011;32412;51.478;5.694;2024-01-30T03:56:07;17.60;;;9.43;;
46675;SDS011;32412;51.478;5.694;2024-01-30T03:58:33;18.98;;;10.48;;
46675;SDS011;32412;51.478;5.694;2024-01-30T04:00:59;20.00;;;10.45;;
46675;SDS011;32412;51.478;5.694;2024-01-30T04:03:24;19.25;;;9.55;;
46675;SDS011;32412;51.478;5.694;2024-01-30T04:05:53;16.50;;;10.55;;
46675;SDS011;32412;51.478;5.694;2024-01-30T04:08:19;16.45;;;9.18;;
46675;SDS011;32412;51.478;5.694;2024-01-30T04:10:50;19.40;;;9.93;;
46675;SDS011;32412;51.478;5.694;2024-01-30T04:13:34;16.17;;;8.95;;
46675;SDS011;32412;51.478;5.694;2024-01-30T04:16:00;16.42;;;8.85;;
46675;SDS011;32412;51.478;5.694;2024-01-30T04:18:27;14.23;;;8.40;;
46675;SDS011;32412;51.478;5.694;2024-01-30T04:20:53;16.13;;;8.65;;
46675;SDS011;32412;51.478;5.694;2024-01-30T04:23:19;15.23;;;8.32;;
46675;SDS011;32412;51.478;5.694;2024-01-30T04:25:45;13.80;;;8.60;;
46675;SDS011;32412;51.478;5.694;2024-01-30T04:28:11;15.85;;;8.57;;
46675;SDS011;32412;51.478;5.694;2024-01-30T04:30:37;12.95;;;7.72;;
46675;SDS011;32412;51.478;5.694;2024-01-30T04:33:03;15.82;;;8.70;;
46675;SDS011;32412;51.478;5.694;2024-01-30T04:35:29;13.90;;;8.95;;
46675;SDS011;32412;51.478;5.694;2024-01-30T04:37:55;12.90;;;8.27;;
46675;SDS011;32412;51.478;5.694;2024-01-30T04:40:21;13.20;;;7.82;;
46675;SDS011;32412;51.478;5.694;2024-01-30T04:42:46;13.63;;;8.77;;
46675;SDS011;32412;51.478;5.694;2024-01-30T04:45:12;14.02;;;8.05;;
46675;SDS011;32412;51.478;5.694;2024-01-30T04:47:38;14.13;;;8.52;;
46675;SDS011;32412;51.478;5.694;2024-01-30T04:50:04;13.57;;;8.23;;
46675;SDS011;32412;51.478;5.694;2024-01-30T04:52:31;14.07;;;8.38;;
46675;SDS011;32412;51.478;5.694;2024-01-30T04:54:57;15.68;;;8.05;;
46675;SDS011;32412;51.478;5.694;2024-01-30T04:57:23;14.50;;;8.88;;
46675;SDS011;32412;51.478;5.694;2024-01-30T04:59:49;12.38;;;8.15;;
46675;SDS011;32412;51.478;5.694;2024-01-30T05:02:14;12.48;;;8.35;;
46675;SDS011;32412;51.478;5.694;2024-01-30T05:04:40;11.48;;;7.95;;
46675;SDS011;32412;51.478;5.694;2024-01-30T05:07:06;15.13;;;7.93;;
46675;SDS011;32412;51.478;5.694;2024-01-30T05:09:33;14.38;;;9.05;;
46675;SDS011;32412;51.478;5.694;2024-01-30T05:11:59;15.40;;;8.82;;
46675;SDS011;32412;51.478;5.694;2024-01-30T05:14:25;16.05;;;9.00;;
46675;SDS011;32412;51.478;5.694;2024-01-30T05:16:50;16.50;;;9.02;;
46675;SDS011;32412;51.478;5.694;2024-01-30T05:19:16;17.15;;;9.43;;
46675;SDS011;32412;51.478;5.694;2024-01-30T05:21:42;14.88;;;8.48;;
46675;SDS011;32412;51.478;5.694;2024-01-30T05:24:08;13.65;;;8.45;;
46675;SDS011;32412;51.478;5.694;2024-01-30T05:26:35;12.00;;;8.43;;
46675;SDS011;32412;51.478;5.694;2024-01-30T05:29:01;14.80;;;8.32;;
46675;SDS011;32412;51.478;5.694;2024-01-30T05:31:27;12.93;;;8.00;;
46675;SDS011;32412;51.478;5.694;2024-01-30T05:33:52;12.73;;;8.27;;
46675;SDS011;32412;51.478;5.694;2024-01-30T05:36:19;14.77;;;7.90;;
46675;SDS011;32412;51.478;5.694;2024-01-30T05:38:45;12.63;;;8.02;;
46675;SDS011;32412;51.478;5.694;2024-01-30T05:41:11;11.73;;;7.38;;
46675;SDS011;32412;51.478;5.694;2024-01-30T05:43:37;11.45;;;7.60;;
46675;SDS011;32412;51.478;5.694;2024-01-30T05:46:02;13.43;;;7.82;;
46675;SDS011;32412;51.478;5.694;2024-01-30T05:48:28;17.35;;;8.13;;
46675;SDS011;32412;51.478;5.694;2024-01-30T05:50:54;12.68;;;7.53;;
46675;SDS011;32412;51.478;5.694;2024-01-30T05:53:19;15.32;;;7.60;;
46675;SDS011;32412;51.478;5.694;2024-01-30T05:55:45;12.57;;;7.88;;
46675;SDS011;32412;51.478;5.694;2024-01-30T05:58:11;14.18;;;7.60;;
46675;SDS011;32412;51.478;5.694;2024-01-30T06:00:36;10.25;;;7.30;;
46675;SDS011;32412;51.478;5.694;2024-01-30T06:03:02;11.00;;;7.75;;
46675;SDS011;32412;51.478;5.694;2024-01-30T06:05:28;11.77;;;7.80;;
46675;SDS011;32412;51.478;5.694;2024-01-30T06:07:53;11.82;;;7.38;;
46675;SDS011;32412;51.478;5.694;2024-01-30T06:10:19;10.07;;;7.55;;
46675;SDS011;32412;51.478;5.694;2024-01-30T06:12:45;13.05;;;7.88;;
46675;SDS011;32412;51.478;5.694;2024-01-30T06:15:10;14.32;;;7.32;;
46675;SDS011;32412;51.478;5.694;2024-01-30T06:17:37;12.95;;;6.88;;
46675;SDS011;32412;51.478;5.694;2024-01-30T06:20:04;14.40;;;7.38;;
46675;SDS011;32412;51.478;5.694;2024-01-30T06:22:30;14.57;;;7.75;;
46675;SDS011;32412;51.478;5.694;2024-01-30T06:24:56;16.63;;;7.93;;
46675;SDS011;32412;51.478;5.694;2024-01-30T06:27:22;14.13;;;7.35;;
46675;SDS011;32412;51.478;5.694;2024-01-30T06:29:47;12.48;;;7.68;;
46675;SDS011;32412;51.478;5.694;2024-01-30T06:32:13;11.57;;;7.47;;
46675;SDS011;32412;51.478;5.694;2024-01-30T06:34:40;14.02;;;7.55;;
46675;SDS011;32412;51.478;5.694;2024-01-30T06:37:06;14.90;;;8.05;;
46675;SDS011;32412;51.478;5.694;2024-01-30T06:39:32;14.07;;;7.68;;
46675;SDS011;32412;51.478;5.694;2024-01-30T06:41:57;12.32;;;7.82;;
46675;SDS011;32412;51.478;5.694;2024-01-30T06:44:23;11.80;;;7.50;;
46675;SDS011;32412;51.478;5.694;2024-01-30T06:46:49;13.45;;;7.63;;
46675;SDS011;32412;51.478;5.694;2024-01-30T06:49:14;13.57;;;7.80;;
46675;SDS011;32412;51.478;5.694;2024-01-30T06:51:40;12.70;;;7.15;;
46675;SDS011;32412;51.478;5.694;2024-01-30T06:54:06;10.88;;;6.97;;
46675;SDS011;32412;51.478;5.694;2024-01-30T06:56:31;12.30;;;8.00;;
46675;SDS011;32412;51.478;5.694;2024-01-30T06:58:57;13.63;;;7.85;;
46675;SDS011;32412;51.478;5.694;2024-01-30T07:01:30;13.85;;;6.90;;
46675;SDS011;32412;51.478;5.694;2024-01-30T07:03:56;15.73;;;7.72;;
46675;SDS011;32412;51.478;5.694;2024-01-30T07:06:22;12.02;;;7.18;;
46675;SDS011;32412;51.478;5.694;2024-01-30T07:08:51;13.60;;;7.13;;
46675;SDS011;32412;51.478;5.694;2024-01-30T07:11:20;15.18;;;7.88;;
46675;SDS011;32412;51.478;5.694;2024-01-30T07:13:52;16.08;;;8.05;;
46675;SDS011;32412;51.478;5.694;2024-01-30T07:16:19;13.15;;;7.07;;
46675;SDS011;32412;51.478;5.694;2024-01-30T07:18:44;13.63;;;6.90;;
46675;SDS011;32412;51.478;5.694;2024-01-30T07:21:11;13.35;;;6.57;;
46675;SDS011;32412;51.478;5.694;2024-01-30T07:23:37;8.32;;;5.80;;
46675;SDS011;32412;51.478;5.694;2024-01-30T07:26:04;11.55;;;5.63;;
46675;SDS011;32412;51.478;5.694;2024-01-30T07:28:31;10.90;;;5.70;;
46675;SDS011;32412;51.478;5.694;2024-01-30T07:30:58;14.02;;;5.80;;
46675;SDS011;32412;51.478;5.694;2024-01-30T07:33:23;8.77;;;5.30;;
46675;SDS011;32412;51.478;5.694;2024-01-30T07:35:49;10.93;;;5.20;;
46675;SDS011;32412;51.478;5.694;2024-01-30T07:38:17;11.35;;;6.05;;
46675;SDS011;32412;51.478;5.694;2024-01-30T07:40:42;8.52;;;5.82;;
46675;SDS011;32412;51.478;5.694;2024-01-30T07:43:08;9.93;;;6.05;;
46675;SDS011;32412;51.478;5.694;2024-01-30T07:45:34;12.40;;;6.05;;
46675;SDS011;32412;51.478;5.694;2024-01-30T07:48:00;10.15;;;6.13;;
46675;SDS011;32412;51.478;5.694;2024-01-30T07:50:26;11.88;;;6.40;;
46675;SDS011;32412;51.478;5.694;2024-01-30T07:52:52;12.07;;;6.50;;
46675;SDS011;32412;51.478;5.694;2024-01-30T07:55:22;13.20;;;6.65;;
46675;SDS011;32412;51.478;5.694;2024-01-30T07:57:56;12.88;;;5.90;;
46675;SDS011;32412;51.478;5.694;2024-01-30T08:00:22;12.48;;;5.90;;
46675;SDS011;32412;51.478;5.694;2024-01-30T08:02:48;11.00;;;5.55;;
46675;SDS011;32412;51.478;5.694;2024-01-30T08:05:14;12.57;;;6.25;;
46675;SDS011;32412;51.478;5.694;2024-01-30T08:07:43;11.65;;;6.13;;
46675;SDS011;32412;51.478;5.694;2024-01-30T08:10:10;10.77;;;5.57;;
46675;SDS011;32412;51.478;5.694;2024-01-30T08:12:37;10.52;;;6.25;;
46675;SDS011;32412;51.478;5.694;2024-01-30T08:15:03;9.23;;;5.18;;
46675;SDS011;32412;51.478;5.694;2024-01-30T08:17:29;10.25;;;5.43;;
46675;SDS011;32412;51.478;5.694;2024-01-30T08:19:55;10.23;;;5.47;;
46675;SDS011;32412;51.478;5.694;2024-01-30T08:22:20;9.48;;;5.40;;
46675;SDS011;32412;51.478;5.694;2024-01-30T08:24:46;6.95;;;5.00;;
46675;SDS011;32412;51.478;5.694;2024-01-30T08:27:12;6.65;;;5.28;;
46675;SDS011;32412;51.478;5.694;2024-01-30T08:29:38;8.10;;;5.25;;
46675;SDS011;32412;51.478;5.694;2024-01-30T08:32:06;8.93;;;5.32;;
46675;SDS011;32412;51.478;5.694;2024-01-30T08:34:32;9.75;;;5.85;;
46675;SDS011;32412;51.478;5.694;2024-01-30T08:36:58;11.60;;;5.75;;
46675;SDS011;32412;51.478;5.694;2024-01-30T08:39:24;8.07;;;5.70;;
46675;SDS011;32412;51.478;5.694;2024-01-30T08:41:50;12.68;;;6.60;;
46675;SDS011;32412;51.478;5.694;2024-01-30T08:44:16;10.75;;;6.63;;
46675;SDS011;32412;51.478;5.694;2024-01-30T08:46:42;10.02;;;5.90;;
46675;SDS011;32412;51.478;5.694;2024-01-30T08:49:09;8.43;;;6.03;;
46675;SDS011;32412;51.478;5.694;2024-01-30T08:51:35;9.48;;;5.88;;
46675;SDS011;32412;51.478;5.694;2024-01-30T08:54:02;8.80;;;6.03;;
46675;SDS011;32412;51.478;5.694;2024-01-30T08:56:27;9.15;;;5.95;;
46675;SDS011;32412;51.478;5.694;2024-01-30T08:58:53;11.60;;;6.13;;
46675;SDS011;32412;51.478;5.694;2024-01-30T09:01:19;11.18;;;5.68;;
46675;SDS011;32412;51.478;5.694;2024-01-30T09:03:45;9.05;;;6.07;;
46675;SDS011;32412;51.478;5.694;2024-01-30T09:06:14;10.55;;;5.72;;
46675;SDS011;32412;51.478;5.694;2024-01-30T09:08:39;9.27;;;6.22;;
46675;SDS011;32412;51.478;5.694;2024-01-30T09:11:12;10.35;;;5.40;;
46675;SDS011;32412;51.478;5.694;2024-01-30T09:13:39;9.73;;;6.35;;
46675;SDS011;32412;51.478;5.694;2024-01-30T09:16:04;9.07;;;6.18;;
46675;SDS011;32412;51.478;5.694;2024-01-30T09:18:31;12.23;;;6.53;;
46675;SDS011;32412;51.478;5.694;2024-01-30T09:20:56;12.82;;;5.93;;
46675;SDS011;32412;51.478;5.694;2024-01-30T09:23:23;9.20;;;5.60;;
46675;SDS011;32412;51.478;5.694;2024-01-30T09:25:50;10.20;;;6.00;;
46675;SDS011;32412;51.478;5.694;2024-01-30T09:28:17;10.98;;;6.35;;
46675;SDS011;32412;51.478;5.694;2024-01-30T09:34:05;9.27;;;5.72;;
46675;SDS011;32412;51.478;5.694;2024-01-30T09:40:08;12.80;;;6.13;;
46675;SDS011;32412;51.478;5.694;2024-01-30T09:42:34;10.23;;;6.35;;
46675;SDS011;32412;51.478;5.694;2024-01-30T09:45:04;14.35;;;6.18;;
46675;SDS011;32412;51.478;5.694;2024-01-30T09:50:05;10.45;;;6.20;;
46675;SDS011;32412;51.478;5.694;2024-01-30T09:52:31;11.23;;;5.93;;
46675;SDS011;32412;51.478;5.694;2024-01-30T09:54:59;14.07;;;7.22;;
46675;SDS011;32412;51.478;5.694;2024-01-30T09:57:26;12.38;;;6.65;;
46675;SDS011;32412;51.478;5.694;2024-01-30T09:59:52;10.75;;;6.15;;
46675;SDS011;32412;51.478;5.694;2024-01-30T10:02:19;9.52;;;5.78;;
46675;SDS011;32412;51.478;5.694;2024-01-30T10:04:48;12.15;;;6.30;;
46675;SDS011;32412;51.478;5.694;2024-01-30T10:07:15;13.00;;;6.20;;
46675;SDS011;32412;51.478;5.694;2024-01-30T10:09:41;12.07;;;6.28;;
46675;SDS011;32412;51.478;5.694;2024-01-30T10:12:07;10.90;;;6.18;;
46675;SDS011;32412;51.478;5.694;2024-01-30T10:14:45;9.98;;;6.60;;
46675;SDS011;32412;51.478;5.694;2024-01-30T10:17:13;13.27;;;6.47;;
46675;SDS011;32412;51.478;5.694;2024-01-30T10:19:39;11.88;;;6.05;;
46675;SDS011;32412;51.478;5.694;2024-01-30T10:22:06;9.68;;;6.15;;
46675;SDS011;32412;51.478;5.694;2024-01-30T10:24:35;8.63;;;5.53;;
46675;SDS011;32412;51.478;5.694;2024-01-30T10:27:01;14.88;;;5.88;;
46675;SDS011;32412;51.478;5.694;2024-01-30T10:29:28;14.80;;;6.05;;
46675;SDS011;32412;51.478;5.694;2024-01-30T10:32:00;10.90;;;5.70;;
46675;SDS011;32412;51.478;5.694;2024-01-30T10:34:27;10.38;;;5.65;;
46675;SDS011;32412;51.478;5.694;2024-01-30T10:37:01;11.77;;;5.40;;
46675;SDS011;32412;51.478;5.694;2024-01-30T10:39:32;11.95;;;6.30;;
46675;SDS011;32412;51.478;5.694;2024-01-30T10:42:04;9.05;;;6.20;;
46675;SDS011;32412;51.478;5.694;2024-01-30T10:44:34;11.77;;;5.82;;
46675;SDS011;32412;51.478;5.694;2024-01-30T10:47:10;9.57;;;6.28;;
46675;SDS011;32412;51.478;5.694;2024-01-30T10:49:39;11.75;;;6.45;;
46675;SDS011;32412;51.478;5.694;2024-01-30T10:52:06;15.20;;;6.20;;
46675;SDS011;32412;51.478;5.694;2024-01-30T10:54:34;9.13;;;5.65;;
46675;SDS011;32412;51.478;5.694;2024-01-30T10:57:01;10.65;;;5.55;;
46675;SDS011;32412;51.478;5.694;2024-01-30T10:59:29;12.77;;;6.22;;
46675;SDS011;32412;51.478;5.694;2024-01-30T11:01:56;9.80;;;5.82;;
46675;SDS011;32412;51.478;5.694;2024-01-30T11:04:23;13.02;;;5.80;;
46675;SDS011;32412;51.478;5.694;2024-01-30T11:06:50;11.52;;;5.88;;
46675;SDS011;32412;51.478;5.694;2024-01-30T11:09:17;8.68;;;6.15;;
46675;SDS011;32412;51.478;5.694;2024-01-30T11:11:59;9.60;;;6.15;;
46675;SDS011;32412;51.478;5.694;2024-01-30T11:14:25;9.85;;;5.82;;
46675;SDS011;32412;51.478;5.694;2024-01-30T11:16:51;10.80;;;5.78;;
46675;SDS011;32412;51.478;5.694;2024-01-30T11:19:27;11.18;;;5.90;;
46675;SDS011;32412;51.478;5.694;2024-01-30T11:21:56;11.70;;;6.82;;
46675;SDS011;32412;51.478;5.694;2024-01-30T11:24:27;11.25;;;6.53;;
46675;SDS011;32412;51.478;5.694;2024-01-30T11:26:56;12.48;;;6.75;;
46675;SDS011;32412;51.478;5.694;2024-01-30T11:29:26;9.40;;;6.07;;
46675;SDS011;32412;51.478;5.694;2024-01-30T11:31:57;11.27;;;6.40;;
46675;SDS011;32412;51.478;5.694;2024-01-30T11:34:23;14.43;;;6.20;;
46675;SDS011;32412;51.478;5.694;2024-01-30T11:36:53;10.73;;;6.55;;
46675;SDS011;32412;51.478;5.694;2024-01-30T11:39:24;11.63;;;6.10;;
46675;SDS011;32412;51.478;5.694;2024-01-30T11:41:52;11.60;;;6.40;;
46675;SDS011;32412;51.478;5.694;2024-01-30T11:47:44;14.50;;;5.80;;
46675;SDS011;32412;51.478;5.694;2024-01-30T11:50:16;13.13;;;5.57;;
46675;SDS011;32412;51.478;5.694;2024-01-30T11:52:42;12.63;;;5.30;;
46675;SDS011;32412;51.478;5.694;2024-01-30T11:55:09;10.50;;;5.53;;
46675;SDS011;32412;51.478;5.694;2024-01-30T12:00:59;8.30;;;4.82;;
46675;SDS011;32412;51.478;5.694;2024-01-30T12:03:28;10.50;;;5.25;;
46675;SDS011;32412;51.478;5.694;2024-01-30T12:09:16;8.85;;;4.55;;
46675;SDS011;32412;51.478;5.694;2024-01-30T12:15:11;10.15;;;4.45;;
46675;SDS011;32412;51.478;5.694;2024-01-30T12:17:37;11.15;;;4.82;;
46675;SDS011;32412;51.478;5.694;2024-01-30T12:20:04;8.02;;;4.20;;
46675;SDS011;32412;51.478;5.694;2024-01-30T12:22:32;9.15;;;4.22;;
46675;SDS011;32412;51.478;5.694;2024-01-30T12:25:11;12.20;;;4.15;;
46675;SDS011;32412;51.478;5.694;2024-01-30T12:27:44;5.47;;;3.40;;
46675;SDS011;32412;51.478;5.694;2024-01-30T12:30:15;11.55;;;4.07;;
46675;SDS011;32412;51.478;5.694;2024-01-30T12:32:42;8.43;;;3.30;;
46675;SDS011;32412;51.478;5.694;2024-01-30T12:35:13;6.97;;;3.42;;
46675;SDS011;32412;51.478;5.694;2024-01-30T12:37:40;5.97;;;3.33;;
46675;SDS011;32412;51.478;5.694;2024-01-30T12:40:09;8.30;;;3.60;;
46675;SDS011;32412;51.478;5.694;2024-01-30T12:42:36;6.15;;;3.28;;
46675;SDS011;32412;51.478;5.694;2024-01-30T12:45:03;8.63;;;4.30;;
46675;SDS011;32412;51.478;5.694;2024-01-30T12:47:29;10.90;;;4.68;;
46675;SDS011;32412;51.478;5.694;2024-01-30T12:49:55;10.52;;;4.88;;
46675;SDS011;32412;51.478;5.694;2024-01-30T12:52:21;9.60;;;4.68;;
46675;SDS011;32412;51.478;5.694;2024-01-30T12:54:47;7.60;;;4.85;;
46675;SDS011;32412;51.478;5.694;2024-01-30T12:57:14;7.35;;;4.68;;
46675;SDS011;32412;51.478;5.694;2024-01-30T12:59:40;8.95;;;3.90;;
46675;SDS011;32412;51.478;5.694;2024-01-30T13:02:05;7.25;;;4.20;;
46675;SDS011;32412;51.478;5.694;2024-01-30T13:04:32;5.72;;;2.97;;
46675;SDS011;32412;51.478;5.694;2024-01-30T13:06:58;6.18;;;3.17;;
46675;SDS011;32412;51.478;5.694;2024-01-30T13:09:25;4.50;;;1.58;;
46675;SDS011;32412;51.478;5.694;2024-01-30T13:11:51;4.80;;;1.65;;
46675;SDS011;32412;51.478;5.694;2024-01-30T13:14:17;3.20;;;1.42;;
46675;SDS011;32412;51.478;5.694;2024-01-30T13:16:43;4.25;;;1.33;;
46675;SDS011;32412;51.478;5.694;2024-01-30T13:19:09;4.88;;;1.00;;
46675;SDS011;32412;51.478;5.694;2024-01-30T13:21:35;5.05;;;1.10;;
46675;SDS011;32412;51.478;5.694;2024-01-30T13:24:01;2.67;;;1.15;;
46675;SDS011;32412;51.478;5.694;2024-01-30T13:26:26;1.52;;;0.57;;
46675;SDS011;32412;51.478;5.694;2024-01-30T13:28:52;2.75;;;0.40;;
46675;SDS011;32412;51.478;5.694;2024-01-30T13:31:18;1.30;;;0.50;;
46675;SDS011;32412;51.478;5.694;2024-01-30T13:33:44;0.93;;;0.57;;
46675;SDS011;32412;51.478;5.694;2024-01-30T13:36:10;5.80;;;0.70;;
46675;SDS011;32412;51.478;5.694;2024-01-30T13:38:36;4.88;;;0.68;;
46675;SDS011;32412;51.478;5.694;2024-01-30T13:41:02;2.95;;;0.70;;
46675;SDS011;32412;51.478;5.694;2024-01-30T13:43:28;4.10;;;0.68;;
46675;SDS011;32412;51.478;5.694;2024-01-30T13:45:54;1.20;;;0.57;;
46675;SDS011;32412;51.478;5.694;2024-01-30T13:48:20;1.58;;;0.63;;
46675;SDS011;32412;51.478;5.694;2024-01-30T13:50:46;5.43;;;1.15;;
46675;SDS011;32412;51.478;5.694;2024-01-30T13:53:12;0.73;;;0.40;;
46675;SDS011;32412;51.478;5.694;2024-01-30T13:55:38;3.53;;;0.60;;
46675;SDS011;32412;51.478;5.694;2024-01-30T13:58:04;3.55;;;0.70;;
46675;SDS011;32412;51.478;5.694;2024-01-30T14:00:30;3.35;;;0.60;;
46675;SDS011;32412;51.478;5.694;2024-01-30T14:02:56;9.43;;;0.70;;
46675;SDS011;32412;51.478;5.694;2024-01-30T14:05:23;2.92;;;0.85;;
46675;SDS011;32412;51.478;5.694;2024-01-30T14:07:49;2.05;;;0.60;;
46675;SDS011;32412;51.478;5.694;2024-01-30T14:10:16;2.60;;;0.65;;
46675;SDS011;32412;51.478;5.694;2024-01-30T14:12:42;2.05;;;0.60;;
46675;SDS011;32412;51.478;5.694;2024-01-30T14:15:13;2.03;;;0.50;;
46675;SDS011;32412;51.478;5.694;2024-01-30T14:17:40;3.28;;;0.80;;
46675;SDS011;32412;51.478;5.694;2024-01-30T14:20:06;2.22;;;0.70;;
46675;SDS011;32412;51.478;5.694;2024-01-30T14:22:33;2.95;;;0.77;;
46675;SDS011;32412;51.478;5.694;2024-01-30T14:24:59;6.25;;;1.00;;
46675;SDS011;32412;51.478;5.694;2024-01-30T14:27:29;4.78;;;0.90;;
46675;SDS011;32412;51.478;5.694;2024-01-30T14:29:55;3.03;;;1.23;;
46675;SDS011;32412;51.478;5.694;2024-01-30T14:32:21;2.60;;;0.77;;
46675;SDS011;32412;51.478;5.694;2024-01-30T14:34:48;2.95;;;0.80;;
46675;SDS011;32412;51.478;5.694;2024-01-30T14:37:14;3.47;;;0.68;;
46675;SDS011;32412;51.478;5.694;2024-01-30T14:39:40;4.70;;;0.80;;
46675;SDS011;32412;51.478;5.694;2024-01-30T14:42:06;3.65;;;0.80;;
46675;SDS011;32412;51.478;5.694;2024-01-30T14:44:32;2.42;;;0.90;;
46675;SDS011;32412;51.478;5.694;2024-01-30T14:46:58;3.35;;;0.80;;
46675;SDS011;32412;51.478;5.694;2024-01-30T14:49:25;2.88;;;0.98;;
46675;SDS011;32412;51.478;5.694;2024-01-30T14:51:51;2.83;;;0.60;;
46675;SDS011;32412;51.478;5.694;2024-01-30T14:54:16;3.92;;;0.75;;
46675;SDS011;32412;51.478;5.694;2024-01-30T14:56:42;4.30;;;1.05;;